Search for airport 
image banner adimage banner adimage banner ad
image banner ad

PN72 - Rocky Hollow Field

Located in Strongstown, United States

ICAO - PN72, IATA -

Data provided by Airmate  

General information

Coordinates: N40°34'9" W78°52'57"
Elevation is 1806 feet MSL.
 
View others Airports in Pennsylvania

Operational data

Special qualification required
Current time UTC:
Current local time:
METAR: KIDI 092315Z AUTO VRB06G12KT 1 1/4SM BR SCT007 OVC013 09/09 A2973 RMK A01
View NOTAMs / SUP AIP / TFR affecting this airport [VIEW]
Communications frequencies: [VIEW]

Runways:

RWY identifierQFULength (ft)Width (ft)SurfaceLDA (ft)
061850120GRAVEL
241850120GRAVEL
183335120GRASS
363335120GRASS

Airport contact information

Address: Strongstown United States

Satellite view of PN72